Latest Weather Observations for Charleville

IDQ60801

Issued at 8:02 am EST Thursday 8 December 2016 (issued every 30 minutes, with the page automatically refreshed every 10 minutes)

About weather observations | Map of weather stations | Latest weather observations for QLD | Other Formats
Station Details ID: 044021 Name: CHARLEVILLE AERO Lat: -26.41 Lon: 146.26 Height: 301.6 m
Data from the previous 72 hours. | See also: Recent months at Charleville
Date/Time
EST
Temp
°C
App
Temp
°C
Dew
Point
°C
Rel
Hum
%
Delta-T
°C
Wind Press
QNH
hPa
Press
MSL
hPa
Rain since
9am
mm
Dir  Spd
km/h
Gust
km/h
Spd
kts
Gust
kts
08/07:30am 28.3 26.0 17.5 52 6.9 N 26 35 14 19 1011.1 1009.1 0.2
08/07:15am 28.5 25.5 17.7 52 6.9 N 30 48 16 26 1011.1 1009.1 0.2
08/07:00am 28.2 26.7 17.7 53 6.7 N 22 32 12 17 1010.8 1008.9 0.2
08/06:30am 26.7 25.1 17.5 57 5.8 N 22 30 12 16 1010.8 1008.9 0.2
08/06:00am 26.4 25.8 17.5 58 5.7 N 17 26 9 14 1010.8 1008.9 0.2
08/05:30am 25.6 25.9 18.0 63 4.8 N 13 17 7 9 1010.5 1008.6 0.2
08/05:00am 25.3 25.5 18.5 66 4.4 N 15 22 8 12 1010.3 1008.4 0.2
08/04:30am 24.9 25.4 18.4 67 4.2 N 13 19 7 10 1010.2 1008.3 0.2
08/04:00am 25.2 25.2 18.2 65 4.5 N 15 17 8 9 1009.8 1007.9 0.2
08/03:30am 25.2 25.2 18.2 65 4.5 NNE 15 19 8 10 1009.8 1007.9 0.2
08/03:00am 25.4 26.2 18.1 64 4.7 N 11 15 6 8 1009.6 1007.6 0.2
08/02:30am 25.6 27.2 18.3 64 4.7 E 7 9 4 5 1009.2 1007.2 0.2
08/02:00am 25.9 26.8 18.3 63 4.9 ENE 11 15 6 8 1009.8 1007.9 0.2
08/01:30am 26.2 27.9 18.6 63 4.9 E 7 9 4 5 1010.4 1008.5 0.2
08/01:00am 26.3 28.0 18.4 61 5.1 E 7 9 4 5 1010.8 1008.9 0.2
08/12:30am 26.4 28.1 18.5 62 5.1 E 7 9 4 5 1011.3 1009.3 0.2
08/12:00am 26.7 28.5 18.3 60 5.4 ENE 6 7 3 4 1011.7 1009.7 0.2
 
Date/Time
EST
Temp
°C
App
Temp
°C
Dew
Point
°C
Rel
Hum
%
Delta-T
°C
Wind Press
QNH
hPa
Press
MSL
hPa
Rain since
9am
mm
Dir  Spd
km/h
Gust
km/h
Spd
kts
Gust
kts
07/11:30pm 27.3 28.4 18.0 56 6.0 NE 9 11 5 6 1011.8 1009.8 0.2
07/11:00pm 28.1 29.2 17.9 54 6.6 ENE 9 13 5 7 1012.1 1010.1 0.2
07/10:30pm 28.4 29.0 17.6 52 6.9 NE 11 15 6 8 1012.1 1010.1 0.2
07/10:00pm 29.5 29.8 17.0 47 8.0 SE 11 15 6 8 1012.1 1010.1 0.2
07/09:30pm 29.2 28.8 15.3 42 8.6 SE 11 11 6 6 1011.9 1009.9 0.2
07/09:00pm 29.3 29.9 16.8 47 7.9 S 9 11 5 6 1011.6 1009.6 0.2
07/08:30pm 29.6 29.5 16.1 44 8.5 S 11 13 6 7 1011.7 1009.7 0.2
07/08:00pm 32.5 30.7 12.2 29 12.2 S 13 17 7 9 1011.7 1009.7 0.0
07/07:30pm 32.9 31.1 12.0 28 12.5 SSE 13 17 7 9 1010.9 1009.0 0.0
07/07:00pm 33.6 31.6 12.6 28 12.7 S 15 19 8 10 1010.8 1008.9 0.0
07/06:30pm 34.1 32.6 13.0 28 12.9 S 13 19 7 10 1010.9 1009.0 0.0
07/06:00pm 34.7 32.6 13.5 28 13.1 S 17 28 9 15 1010.3 1008.4 0.0
07/05:30pm 35.2 33.0 13.4 27 13.4 S 17 32 9 17 1010.0 1008.1 0.0
07/05:00pm 36.0 33.7 14.1 27 13.7 S 19 28 10 15 1009.7 1007.8 0.0
07/04:30pm 36.1 34.8 13.6 26 13.9 SW 13 22 7 12 1009.7 1007.8 0.0
07/04:00pm 36.8 36.0 14.1 25 14.2 SSW 11 22 6 12 1009.9 1008.0 0.0
07/03:30pm 36.0 35.4 14.6 27 13.4 NNW 11 17 6 9 1010.4 1008.5 0.0
07/03:00pm 34.9 34.5 14.2 28 12.9 N 9 19 5 10 1011.2 1009.2 0.0
07/02:30pm 34.9 34.7 15.7 31 12.2 NW 11 17 6 9 1011.6 1009.6 0.0
07/02:00pm 33.9 33.6 15.4 33 11.7 NNE 11 15 6 8 1011.9 1009.9 0.0
07/01:30pm 33.8 34.2 15.3 33 11.7 N 7 17 4 9 1012.3 1010.3 0.0
07/01:00pm 31.7 31.6 16.0 38 9.9 N 11 15 6 8 1012.8 1010.9 0.0
07/12:30pm 31.3 31.6 16.1 40 9.6 NNW 9 11 5 6 1013.2 1011.3 0.0
07/12:00pm 30.9 31.4 16.5 42 9.1 NW 9 15 5 8 1013.4 1011.5 0.0
07/11:30am 30.7 31.6 16.7 43 8.9 NNW 7 11 4 6 1014.0 1012.1 0.0
07/11:00am 29.1 30.0 16.6 46 7.9 NNW 7 11 4 6 1014.3 1012.4 0.0
07/10:30am 29.3 29.5 16.8 47 7.9 ENE 11 15 6 8 1014.3 1012.4 0.0
07/10:00am 28.8 28.2 16.7 48 7.6 NE 15 19 8 10 1014.2 1012.3 0.0
07/09:30am 28.9 27.7 17.1 49 7.5 ENE 19 28 10 15 1014.1 1012.2 0.0
07/09:00am 28.0 28.1 17.5 52 6.7 ENE 13 19 7 10 1014.4 1012.5 0.2
07/08:30am 27.1 27.4 17.8 56 5.9 ENE 13 17 7 9 1014.6 1012.6 0.2
07/08:00am 26.3 27.5 18.2 61 5.2 ENE 9 11 5 6 1014.6 1012.6 0.2
07/07:30am 25.4 26.8 18.6 66 4.4 ENE 9 13 5 7 1014.2 1012.3 0.2
07/07:00am 25.3 26.3 18.7 67 4.2 N 11 15 6 8 1014.9 1012.9 0.2
07/06:30am 25.1 27.7 18.3 66 4.3 NNE 2 9 1 5 1014.4 1012.5 0.2
07/06:00am 25.7 26.3 17.6 61 5.1 ENE 11 17 6 9 1013.8 1011.9 0.0
07/05:30am 25.6 25.7 17.5 61 5.1 SE 13 17 7 9 1013.2 1011.3 0.0
07/05:00am 25.4 25.6 17.6 62 4.9 SE 13 15 7 8 1013.0 1011.1 0.0
07/04:30am 25.6 25.9 18.0 63 4.8 ENE 13 17 7 9 1012.8 1010.9 0.0
07/04:00am 26.0 26.5 17.4 59 5.4 E 11 15 6 8 1012.9 1011.0 0.0
07/03:30am 26.1 26.9 17.2 58 5.6 SE 9 13 5 7 1012.6 1010.7 0.0
07/03:00am 26.2 25.9 17.3 58 5.6 ESE 15 19 8 10 1012.2 1010.2 0.0
07/02:30am 26.4 26.4 17.2 57 5.8 SE 13 15 7 8 1012.7 1010.8 0.0
07/02:00am 26.7 27.0 16.9 55 6.2 SE 11 13 6 7 1013.1 1011.2 0.0
07/01:30am 26.9 26.7 16.8 54 6.4 ESE 13 22 7 12 1012.7 1010.8 0.0
07/01:00am 27.2 26.7 16.8 53 6.6 SE 15 22 8 12 1013.0 1011.1 0.0
07/12:30am 27.5 24.4 16.5 51 6.9 SE 28 39 15 21 1013.4 1011.5 0.0
07/12:00am 27.9 25.5 16.5 50 7.2 SSE 24 30 13 16 1013.6 1011.7 0.0
 
Date/Time
EST
Temp
°C
App
Temp
°C
Dew
Point
°C
Rel
Hum
%
Delta-T
°C
Wind Press
QNH
hPa
Press
MSL
hPa
Rain since
9am
mm
Dir  Spd
km/h
Gust
km/h
Spd
kts
Gust
kts
06/11:30pm 28.2 26.7 16.8 50 7.2 SSE 20 30 11 16 1014.0 1012.1 0.0
06/11:00pm 28.3 26.0 16.6 49 7.4 SSE 24 35 13 19 1013.9 1012.0 0.0
06/10:30pm 28.7 26.0 16.6 48 7.6 SSE 26 37 14 20 1014.0 1012.1 0.0
06/10:00pm 29.0 25.3 16.9 48 7.7 SSE 32 48 17 26 1013.7 1011.8 0.0
06/09:30pm 29.5 24.4 16.7 46 8.1 S 39 57 21 31 1013.2 1011.3 0.0
06/09:00pm 30.5 25.9 16.1 41 9.1 S 35 54 19 29 1012.6 1010.7 0.0
06/08:57pm 30.5 25.9 16.1 41 9.1 S 35 54 19 29 1012.6 1010.7 0.0
06/08:30pm 32.4 27.8 13.6 32 11.5 S 30 39 16 21 1012.1 1010.1 0.0
06/08:15pm 33.3 28.3 13.4 30 12.2 S 32 48 17 26 1011.3 1009.3 0.0
06/08:00pm 34.3 31.7 13.7 29 12.7 S 20 30 11 16 1010.6 1008.7 0.0
06/07:30pm 35.0 33.3 12.6 26 13.6 SSE 13 17 7 9 1009.7 1007.8 0.0
06/07:00pm 35.9 34.1 12.2 24 14.4 SSE 13 19 7 10 1009.2 1007.2 0.0
06/06:30pm 36.7 34.1 10.8 21 15.5 S 15 20 8 11 1008.6 1006.6 0.0
06/06:00pm 36.4 34.9 10.6 21 15.4 WNW 9 13 5 7 1007.8 1005.8 0.0
06/05:30pm 36.8 34.8 11.6 22 15.2 SW 13 26 7 14 1007.7 1005.7 0.0
06/05:00pm 34.9 32.6 14.2 28 12.9 N 19 30 10 16 1008.1 1006.1 0.0
06/04:30pm 32.3 29.2 16.6 39 10.0 N 28 48 15 26 1007.9 1005.9 0.0
06/04:29pm 32.6 28.7 15.6 36 10.7 N 30 48 16 26 1007.9 1005.9 0.0
06/04:15pm 34.9 32.3 13.7 28 13.1 NNE 20 50 11 27 1007.7 1005.7 0.0
06/04:00pm 41.2 37.0 7.3 13 19.6 N 19 33 10 18 1007.1 1005.2 0.0
06/03:30pm 42.7 38.5 8.4 13 20.2 WSW 20 30 11 16 1007.4 1005.5 0.0
06/03:00pm 42.5 39.2 9.4 14 19.8 WSW 17 33 9 18 1008.1 1006.1 0.0
06/02:30pm 40.6 36.9 7.9 14 19.0 WNW 17 26 9 14 1008.7 1006.7 0.0
06/02:00pm 41.9 37.8 7.8 13 19.9 WNW 19 33 10 18 1009.2 1007.2 0.0
06/01:30pm 41.0 38.1 8.2 14 19.2 WSW 13 19 7 10 1009.7 1007.8 0.0
06/01:00pm 40.8 37.1 8.1 14 19.1 WSW 17 30 9 16 1010.1 1008.2 0.0
06/12:30pm 39.9 36.0 9.3 16 18.1 WSW 20 33 11 18 1010.6 1008.7 0.0
06/12:00pm 40.5 37.4 8.8 15 18.7 WNW 15 35 8 19 1011.1 1009.1 0.0
06/11:30am 40.0 36.7 9.4 16 18.1 WSW 17 28 9 15 1011.7 1009.7 0.0
06/11:00am 39.9 36.8 10.2 17 17.8 NW 17 26 9 14 1012.2 1010.2 0.0
06/10:30am 38.6 35.4 10.0 18 17.0 NW 17 26 9 14 1012.6 1010.7 0.0
06/10:00am 37.3 35.0 10.6 20 15.9 NW 13 19 7 10 1012.8 1010.9 0.0
06/09:30am 36.9 34.2 10.2 20 15.8 NW 15 24 8 13 1013.3 1011.4 0.0
06/09:00am 36.2 33.5 10.4 21 15.3 NNW 15 28 8 15 1013.3 1011.4 0.0
06/08:30am 34.2 32.4 12.0 26 13.3 N 13 26 7 14 1013.0 1011.1 0.0
06/08:00am 33.2 31.3 11.7 27 12.8 NNE 13 17 7 9 1013.2 1011.3 0.0
06/07:30am 32.3 31.8 12.5 30 11.9 NE 7 9 4 5 1013.2 1011.3 0.0
06/07:00am 30.1 30.8 12.1 33 10.7 CALM 0 0 0 0 1013.2 1011.3 0.0
06/06:30am 28.7 29.5 12.6 37 9.6 CALM 0 0 0 0 1012.8 1010.9 0.0
06/06:00am 25.8 26.9 13.6 47 7.3 CALM 0 0 0 0 1012.4 1010.4 0.0
06/05:30am 25.0 25.9 12.9 47 7.1 CALM 0 0 0 0 1012.1 1010.1 0.0
06/05:00am 25.7 26.5 12.5 44 7.7 CALM 0 0 0 0 1011.8 1009.8 0.0
06/04:30am 26.7 26.1 12.4 41 8.4 SSE 7 9 4 5 1011.6 1009.6 0.0
06/04:00am 26.5 25.6 12.5 41 8.2 S 9 15 5 8 1011.3 1009.3 0.0
06/03:30am 26.8 26.4 12.5 41 8.4 SSW 6 7 3 4 1011.2 1009.2 0.0
06/03:00am 26.5 26.9 11.4 39 8.7 CALM 0 0 0 0 1010.7 1008.8 0.0
06/02:30am 27.5 28.1 11.9 38 9.1 CALM 0 0 0 0 1010.6 1008.7 0.0
06/02:00am 28.2 27.3 11.3 35 9.8 WNW 7 9 4 5 1010.6 1008.7 0.0
06/01:30am 28.6 28.9 10.8 33 10.3 CALM 0 0 0 0 1010.5 1008.6 0.0
06/01:00am 29.8 29.0 10.9 31 11.0 E 6 11 3 6 1010.4 1008.5 0.0
06/12:30am 30.0 28.5 10.5 30 11.3 ESE 9 13 5 7 1010.4 1008.5 0.0
06/12:00am 30.5 30.5 9.9 28 11.8 CALM 0 7 0 4 1010.8 1008.9 0.0
 
Date/Time
EST
Temp
°C
App
Temp
°C
Dew
Point
°C
Rel
Hum
%
Delta-T
°C
Wind Press
QNH
hPa
Press
MSL
hPa
Rain since
9am
mm
Dir  Spd
km/h
Gust
km/h
Spd
kts
Gust
kts
05/11:30pm 33.1 31.8 9.8 24 13.5 SW 7 13 4 7 1011.1 1009.1 0.0
05/11:00pm 33.8 31.5 10.4 24 13.7 SSW 13 17 7 9 1010.8 1008.9 0.0
05/10:30pm 34.1 32.1 10.0 23 14.1 S 11 17 6 9 1010.5 1008.6 0.0
05/10:00pm 34.0 33.6 9.9 23 14.0 WSW 2 7 1 4 1010.7 1008.8 0.0
05/09:30pm 35.1 32.2 9.5 21 14.9 S 15 19 8 10 1010.1 1008.2 0.0
05/09:00pm 33.1 31.8 9.2 23 13.7 W 6 17 3 9 1009.6 1007.6 0.0
05/08:30pm 32.2 31.8 8.4 23 13.4 CALM 0 0 0 0 1009.4 1007.4 0.0
05/08:00pm 33.5 32.9 7.5 20 14.6 CALM 0 0 0 0 1009.1 1007.1 0.0
05/07:30pm 35.6 33.7 7.6 18 15.8 N 7 9 4 5 1008.8 1006.8 0.0
05/07:00pm 37.9 35.5 6.8 15 17.6 N 9 9 5 5 1008.6 1006.6 0.0
05/06:30pm 39.5 37.1 7.1 14 18.5 N 9 11 5 6 1008.5 1006.5 0.0
05/06:00pm 40.4 37.5 6.7 13 19.3 NNW 11 15 6 8 1008.2 1006.2 0.0
05/05:30pm 41.2 38.5 7.3 13 19.6 WNW 11 19 6 10 1008.1 1006.1 0.0
05/05:00pm 40.7 37.1 6.9 13 19.4 NW 15 20 8 11 1008.1 1006.1 0.0
05/04:30pm 42.2 39.4 6.9 12 20.4 NNE 11 19 6 10 1008.1 1006.1 0.0
05/04:00pm 42.3 38.8 7.0 12 20.4 SW 15 30 8 16 1008.4 1006.4 0.0
05/03:30pm 42.5 39.7 7.1 12 20.5 W 11 26 6 14 1008.7 1006.7 0.0
05/03:00pm 42.1 37.6 6.8 12 20.4 WNW 20 37 11 20 1009.0 1007.0 0.0
05/02:30pm 41.6 38.2 7.6 13 19.8 NW 15 32 8 17 1009.2 1007.2 0.0
05/02:00pm 41.8 38.1 7.8 13 19.9 WNW 17 32 9 17 1009.6 1007.6 0.0
05/01:30pm 41.9 38.2 7.8 13 19.9 NNW 17 28 9 15 1009.9 1008.0 0.0
05/01:00pm 41.0 35.8 7.1 13 19.5 NNW 24 37 13 20 1010.3 1008.4 0.0
05/12:30pm 40.5 36.8 7.8 14 19.0 WNW 17 33 9 18 1010.8 1008.9 0.0
05/12:00pm 40.7 36.4 6.9 13 19.4 NW 19 30 10 16 1011.4 1009.4 0.0
05/11:30am 40.4 35.2 8.8 15 18.6 NNW 26 39 14 21 1011.7 1009.7 0.0
05/11:03am 40.4 34.8 8.8 15 18.6 NW 28 46 15 25 1012.0 1010.0 0.0
05/11:00am 39.6 34.2 8.1 15 18.3 NW 26 39 14 21 1012.1 1010.1 0.0
05/10:36am 39.0 33.6 9.5 17 17.4 NNW 28 48 15 26 1012.2 1010.2 0.0
05/10:30am 39.0 33.2 9.5 17 17.4 NW 30 43 16 23 1012.3 1010.3 0.0
05/10:00am 38.2 32.9 9.7 18 16.8 NNW 28 41 15 22 1012.5 1010.5 0.0
05/09:30am 37.3 31.6 9.8 19 16.2 NNW 30 41 16 22 1012.6 1010.7 0.0

Other Formats:

Comma delimited format used in spreadsheet applications
http://www.bom.gov.au/fwo/IDQ60801/IDQ60801.94510.axf

JavaScript Object Notation format (JSON) in row-major order
http://www.bom.gov.au/fwo/IDQ60801/IDQ60801.94510.json